KR-0022 weather

Busan (Jakjeon) Naval Base Heliport
Yongho-dong, Nam-Gu, Busan, Busan Gwang'yeogsi, South Korea

Public forecast

Using degrees Celsius for public forecast. Weather courtesy of forecast.io.

Closest aviation weather report (METAR) to Busan (Jakjeon) Naval Base Heliport

Closest report is Gimhae International Airport, 9.5 nm (17.6 km) WNW. Retrieved 2020/01/26 20:00 UTC (14 minutes ago):

RKPK 262000Z 03015G25KT 9000 -RA BKN030 OVC050 10/06 Q1018

Closest aviation forecast (TAF) to Busan (Jakjeon) Naval Base Heliport

Closest forecast is Gimhae International Airport, 9.5 nm (17.6 km) WNW. Retrieved 2020/01/26 18:00 UTC (2 hours ago):

TAF RKPK 261700Z 2618/2724 03015KT 4800 -RA BR SCT015 BKN030 OVC100 TN08/2622Z TX10/2705Z BECMG 2623/2624 03015G25KT 1600 BKN015 OVC030 BECMG 2711/2712 03012KT 4800 SCT015 OVC030 BECMG 2722/2723 36008KT 9999 NSW BKN030